createdAt,value
2023-01-11T00:00:00.918Z,1023
2023-01-11T00:16:03.435Z,1022.96
2023-01-11T00:31:00.725Z,1023
2023-01-11T00:46:02.740Z,1023.07
2023-01-11T01:00:05.093Z,1023.1
2023-01-11T01:16:02.095Z,1023
2023-01-11T01:31:04.180Z,1022.96
2023-01-11T01:46:01.368Z,1022.93
2023-01-11T02:00:03.526Z,1023
2023-01-11T02:16:00.684Z,1023.07
2023-01-11T02:31:02.961Z,1023.03
2023-01-11T02:46:04.852Z,1022.83
2023-01-11T03:00:01.825Z,1022.83
2023-01-11T03:16:04.021Z,1022.93
2023-01-11T03:31:01.299Z,1022.93
2023-01-11T03:46:03.543Z,1022.73
2023-01-11T04:00:00.379Z,1022.79
2023-01-11T04:16:02.794Z,1022.9
2023-01-11T04:31:00.368Z,1022.93
2023-01-11T04:46:02.116Z,1022.93
2023-01-11T05:00:04.176Z,1022.86
2023-01-11T05:16:01.437Z,1022.86
2023-01-11T05:31:03.495Z,1022.79
2023-01-11T05:46:00.892Z,1022.56
2023-01-11T06:00:02.649Z,1022.39
2023-01-11T06:16:04.912Z,1022.12
2023-01-11T06:31:02.273Z,1022.15
2023-01-11T06:46:04.587Z,1022.18
2023-01-11T07:00:02.951Z,1022.35
2023-01-11T07:16:03.604Z,1022.66
2023-01-11T07:31:00.732Z,1022.66
2023-01-11T07:46:03.750Z,1022.73
2023-01-11T08:00:04.761Z,1022.76
2023-01-11T08:16:01.992Z,1022.66
2023-01-11T08:31:04.486Z,1022.49
2023-01-11T08:46:01.374Z,1022.52
2023-01-11T09:00:03.375Z,1022.59
2023-01-11T09:16:00.800Z,1022.42
2023-01-11T09:31:03.013Z,1022.42
2023-01-11T09:46:00.300Z,1022.35
2023-01-11T10:00:02.080Z,1022.12
2023-01-11T10:18:38.764Z,1022.05
2023-01-11T10:31:01.441Z,1022.02
2023-01-11T10:46:03.660Z,1021.68
2023-01-11T11:00:00.541Z,1021.54
2023-01-11T11:16:03.017Z,1021.37
2023-01-11T11:31:04.984Z,1021.03
2023-01-11T11:46:02.263Z,1020.69
2023-01-11T12:00:06.535Z,1020.53
2023-01-11T12:16:01.643Z,1020.29
2023-01-11T12:31:03.787Z,1020.36
2023-01-11T12:46:00.824Z,1020.39
2023-01-11T13:00:02.655Z,1020.39
2023-01-11T13:16:00.097Z,1020.15
2023-01-11T13:31:02.022Z,1020.19
2023-01-11T13:46:04.023Z,1020.02
2023-01-11T14:00:01.040Z,1019.95
2023-01-11T14:16:03.358Z,1020.15
2023-01-11T14:31:00.402Z,1020.19
2023-01-11T14:46:02.682Z,1020.05
2023-01-11T15:00:03.770Z,1020.05
2023-01-11T15:16:01.924Z,1020.12
2023-01-11T15:31:04.022Z,1019.81
2023-01-11T15:46:02.684Z,1019.81
2023-01-11T16:00:04.188Z,1019.88
2023-01-11T16:16:00.510Z,1020.12
2023-01-11T16:31:01.060Z,1020.19
2023-01-11T16:46:04.563Z,1020.25
2023-01-11T17:00:01.592Z,1020.22
2023-01-11T17:16:03.905Z,1020.53
2023-01-11T17:31:00.795Z,1020.63
2023-01-11T17:46:02.897Z,1020.76
2023-01-11T18:00:04.849Z,1020.86
2023-01-11T18:16:02.154Z,1020.76
2023-01-11T18:31:04.398Z,1020.86
2023-01-11T18:46:01.591Z,1021
2023-01-11T19:00:03.553Z,1020.9
2023-01-11T19:16:00.812Z,1021.27
2023-01-11T19:31:02.921Z,1021.44
2023-01-11T19:46:05.006Z,1021.58
2023-01-11T20:00:02.080Z,1021.74
2023-01-11T20:16:04.392Z,1021.51
2023-01-11T20:31:02.512Z,1021.41
2023-01-11T20:46:03.693Z,1021.3
2023-01-11T21:00:01.733Z,1021.34
2023-01-11T21:16:02.964Z,1021.41
2023-01-11T21:31:00.426Z,1021.58
2023-01-11T21:46:02.396Z,1021.88
2023-01-11T22:00:04.360Z,1022.25
2023-01-11T22:16:01.798Z,1022.15
2023-01-11T22:31:03.989Z,1022.32
2023-01-11T22:46:01.196Z,1022.25
2023-01-11T23:00:03.177Z,1021.95
2023-01-11T23:16:00.416Z,1021.78
2023-01-11T23:31:02.593Z,1021.64
2023-01-11T23:46:06.524Z,1021.61
